sensor_id;sensor_type;location;lat;lon;timestamp;temperature;humidity
21047;DHT22;10682;50.874;3.656;2023-03-01T00:01:42;-2.10;99.90
21047;DHT22;10682;50.874;3.656;2023-03-01T00:04:09;-2.10;99.90
21047;DHT22;10682;50.874;3.656;2023-03-01T00:06:36;-2.10;99.90
21047;DHT22;10682;50.874;3.656;2023-03-01T00:09:04;-2.10;99.90
21047;DHT22;10682;50.874;3.656;2023-03-01T00:11:33;-2.10;99.90
21047;DHT22;10682;50.874;3.656;2023-03-01T00:14:09;-2.20;99.90
21047;DHT22;10682;50.874;3.656;2023-03-01T00:16:40;-2.20;99.90
21047;DHT22;10682;50.874;3.656;2023-03-01T00:19:17;-2.10;99.90
21047;DHT22;10682;50.874;3.656;2023-03-01T00:21:46;-2.10;99.90
21047;DHT22;10682;50.874;3.656;2023-03-01T00:24:14;-2.20;99.90
21047;DHT22;10682;50.874;3.656;2023-03-01T00:26:42;-2.20;99.90
21047;DHT22;10682;50.874;3.656;2023-03-01T00:29:09;-2.30;99.90
21047;DHT22;10682;50.874;3.656;2023-03-01T00:31:36;-2.30;99.90
21047;DHT22;10682;50.874;3.656;2023-03-01T00:34:04;-2.30;99.90
21047;DHT22;10682;50.874;3.656;2023-03-01T00:36:35;-2.30;99.90
21047;DHT22;10682;50.874;3.656;2023-03-01T00:39:11;-2.30;99.90
21047;DHT22;10682;50.874;3.656;2023-03-01T00:41:40;-2.40;99.90
21047;DHT22;10682;50.874;3.656;2023-03-01T00:44:08;-2.40;99.90
21047;DHT22;10682;50.874;3.656;2023-03-01T00:46:38;-2.40;99.90
21047;DHT22;10682;50.874;3.656;2023-03-01T00:49:06;-2.50;99.90
21047;DHT22;10682;50.874;3.656;2023-03-01T00:51:33;-2.50;99.90
21047;DHT22;10682;50.874;3.656;2023-03-01T00:54:02;-2.60;99.90
21047;DHT22;10682;50.874;3.656;2023-03-01T00:56:30;-2.60;99.90
21047;DHT22;10682;50.874;3.656;2023-03-01T00:58:58;-2.70;99.90
21047;DHT22;10682;50.874;3.656;2023-03-01T01:01:27;-2.70;99.90
21047;DHT22;10682;50.874;3.656;2023-03-01T01:03:58;-2.70;99.90
21047;DHT22;10682;50.874;3.656;2023-03-01T01:06:38;-2.80;99.90
21047;DHT22;10682;50.874;3.656;2023-03-01T01:09:07;-2.80;99.90
21047;DHT22;10682;50.874;3.656;2023-03-01T01:11:35;-2.80;99.90
21047;DHT22;10682;50.874;3.656;2023-03-01T01:14:05;-2.80;99.90
21047;DHT22;10682;50.874;3.656;2023-03-01T01:16:32;-2.80;99.90
21047;DHT22;10682;50.874;3.656;2023-03-01T01:19:00;-2.80;99.90
21047;DHT22;10682;50.874;3.656;2023-03-01T01:21:27;-2.80;99.90
21047;DHT22;10682;50.874;3.656;2023-03-01T01:23:55;-2.80;99.90
21047;DHT22;10682;50.874;3.656;2023-03-01T01:26:33;-2.80;99.90
21047;DHT22;10682;50.874;3.656;2023-03-01T01:29:02;-2.80;99.90
21047;DHT22;10682;50.874;3.656;2023-03-01T01:31:32;-2.80;99.90
21047;DHT22;10682;50.874;3.656;2023-03-01T01:34:01;-2.80;99.90
21047;DHT22;10682;50.874;3.656;2023-03-01T01:36:30;-2.80;99.90
21047;DHT22;10682;50.874;3.656;2023-03-01T01:38:58;-2.80;99.90
21047;DHT22;10682;50.874;3.656;2023-03-01T01:41:28;-2.80;99.90
21047;DHT22;10682;50.874;3.656;2023-03-01T01:47:35;-2.80;99.90
21047;DHT22;10682;50.874;3.656;2023-03-01T01:50:02;-2.80;99.90
21047;DHT22;10682;50.874;3.656;2023-03-01T01:52:35;-2.80;99.90
21047;DHT22;10682;50.874;3.656;2023-03-01T01:55:09;-2.80;99.90
21047;DHT22;10682;50.874;3.656;2023-03-01T01:57:41;-2.70;99.90
21047;DHT22;10682;50.874;3.656;2023-03-01T02:00:23;-2.70;99.90
21047;DHT22;10682;50.874;3.656;2023-03-01T02:02:57;-2.70;99.90
21047;DHT22;10682;50.874;3.656;2023-03-01T02:08:25;-2.80;99.90
21047;DHT22;10682;50.874;3.656;2023-03-01T02:10:55;-2.90;99.90
21047;DHT22;10682;50.874;3.656;2023-03-01T02:13:23;-2.90;99.90
21047;DHT22;10682;50.874;3.656;2023-03-01T02:15:50;-2.90;99.90
21047;DHT22;10682;50.874;3.656;2023-03-01T02:18:18;-2.90;99.90
21047;DHT22;10682;50.874;3.656;2023-03-01T02:24:53;-2.90;99.90
21047;DHT22;10682;50.874;3.656;2023-03-01T02:28:08;-2.90;99.90
21047;DHT22;10682;50.874;3.656;2023-03-01T02:30:42;-2.90;99.90
21047;DHT22;10682;50.874;3.656;2023-03-01T02:33:31;-2.90;99.90
21047;DHT22;10682;50.874;3.656;2023-03-01T02:36:03;-2.90;99.90
21047;DHT22;10682;50.874;3.656;2023-03-01T02:38:32;-2.90;99.90
21047;DHT22;10682;50.874;3.656;2023-03-01T02:41:00;-2.90;99.90
21047;DHT22;10682;50.874;3.656;2023-03-01T02:43:31;-2.90;99.90
21047;DHT22;10682;50.874;3.656;2023-03-01T02:46:14;-3.00;99.90
21047;DHT22;10682;50.874;3.656;2023-03-01T02:49:00;-3.00;99.90
21047;DHT22;10682;50.874;3.656;2023-03-01T02:54:29;-3.10;99.90
21047;DHT22;10682;50.874;3.656;2023-03-01T02:57:01;-3.20;99.90
21047;DHT22;10682;50.874;3.656;2023-03-01T02:59:31;-3.20;99.90
21047;DHT22;10682;50.874;3.656;2023-03-01T03:02:07;-3.30;99.90
21047;DHT22;10682;50.874;3.656;2023-03-01T03:04:34;-3.30;99.90
21047;DHT22;10682;50.874;3.656;2023-03-01T03:07:02;-3.40;99.90
21047;DHT22;10682;50.874;3.656;2023-03-01T03:09:29;-3.40;99.90
21047;DHT22;10682;50.874;3.656;2023-03-01T03:11:56;-3.40;99.90
21047;DHT22;10682;50.874;3.656;2023-03-01T03:14:23;-3.50;99.90
21047;DHT22;10682;50.874;3.656;2023-03-01T03:16:50;-3.50;99.90
21047;DHT22;10682;50.874;3.656;2023-03-01T03:19:18;-3.50;99.90
21047;DHT22;10682;50.874;3.656;2023-03-01T03:21:46;-3.50;99.90
21047;DHT22;10682;50.874;3.656;2023-03-01T03:24:13;-3.50;99.90
21047;DHT22;10682;50.874;3.656;2023-03-01T03:26:52;-3.50;99.90
21047;DHT22;10682;50.874;3.656;2023-03-01T03:29:19;-3.50;99.90
21047;DHT22;10682;50.874;3.656;2023-03-01T03:31:46;-3.50;99.90
21047;DHT22;10682;50.874;3.656;2023-03-01T03:34:14;-3.50;99.90
21047;DHT22;10682;50.874;3.656;2023-03-01T03:36:44;-3.40;99.90
21047;DHT22;10682;50.874;3.656;2023-03-01T03:39:11;-3.40;99.90
21047;DHT22;10682;50.874;3.656;2023-03-01T03:41:43;-3.40;99.90
21047;DHT22;10682;50.874;3.656;2023-03-01T03:44:10;-3.40;99.90
21047;DHT22;10682;50.874;3.656;2023-03-01T03:46:37;-3.50;99.90
21047;DHT22;10682;50.874;3.656;2023-03-01T03:49:05;-3.50;99.90
21047;DHT22;10682;50.874;3.656;2023-03-01T03:51:32;-3.60;99.90
21047;DHT22;10682;50.874;3.656;2023-03-01T03:53:59;-3.60;99.90
21047;DHT22;10682;50.874;3.656;2023-03-01T03:56:26;-3.60;99.90
21047;DHT22;10682;50.874;3.656;2023-03-01T03:58:54;-3.60;99.90
21047;DHT22;10682;50.874;3.656;2023-03-01T04:01:21;-3.70;99.90
21047;DHT22;10682;50.874;3.656;2023-03-01T04:03:48;-3.70;99.90
21047;DHT22;10682;50.874;3.656;2023-03-01T04:06:21;-3.70;99.90
21047;DHT22;10682;50.874;3.656;2023-03-01T04:08:48;-3.70;99.90
21047;DHT22;10682;50.874;3.656;2023-03-01T04:11:26;-3.70;99.90
21047;DHT22;10682;50.874;3.656;2023-03-01T04:13:56;-3.60;99.90
21047;DHT22;10682;50.874;3.656;2023-03-01T04:16:25;-3.60;99.90
21047;DHT22;10682;50.874;3.656;2023-03-01T04:18:52;-3.50;99.90
21047;DHT22;10682;50.874;3.656;2023-03-01T04:21:20;-3.50;99.90
21047;DHT22;10682;50.874;3.656;2023-03-01T04:23:48;-3.50;99.90
21047;DHT22;10682;50.874;3.656;2023-03-01T04:26:15;-3.50;99.90
21047;DHT22;10682;50.874;3.656;2023-03-01T04:28:42;-3.40;99.90
21047;DHT22;10682;50.874;3.656;2023-03-01T04:31:14;-3.40;99.90
21047;DHT22;10682;50.874;3.656;2023-03-01T04:33:49;-3.40;99.90
21047;DHT22;10682;50.874;3.656;2023-03-01T04:36:20;-3.40;99.90
21047;DHT22;10682;50.874;3.656;2023-03-01T04:39:23;-3.30;99.90
21047;DHT22;10682;50.874;3.656;2023-03-01T04:41:57;-3.30;99.90
21047;DHT22;10682;50.874;3.656;2023-03-01T04:44:24;-3.30;99.90
21047;DHT22;10682;50.874;3.656;2023-03-01T04:46:51;-3.30;99.90
21047;DHT22;10682;50.874;3.656;2023-03-01T04:49:18;-3.20;99.90
21047;DHT22;10682;50.874;3.656;2023-03-01T04:51:46;-3.20;99.90
21047;DHT22;10682;50.874;3.656;2023-03-01T04:54:13;-3.10;99.90
21047;DHT22;10682;50.874;3.656;2023-03-01T04:56:40;-3.20;99.90
21047;DHT22;10682;50.874;3.656;2023-03-01T04:59:07;-3.20;99.90
21047;DHT22;10682;50.874;3.656;2023-03-01T05:01:36;-3.30;99.90
21047;DHT22;10682;50.874;3.656;2023-03-01T05:04:05;-3.30;99.90
21047;DHT22;10682;50.874;3.656;2023-03-01T05:06:33;-3.40;99.90
21047;DHT22;10682;50.874;3.656;2023-03-01T05:09:00;-3.40;99.90
21047;DHT22;10682;50.874;3.656;2023-03-01T05:11:28;-3.40;99.90
21047;DHT22;10682;50.874;3.656;2023-03-01T05:13:59;-3.50;99.90
21047;DHT22;10682;50.874;3.656;2023-03-01T05:16:27;-3.50;99.90
21047;DHT22;10682;50.874;3.656;2023-03-01T05:19:01;-3.60;99.90
21047;DHT22;10682;50.874;3.656;2023-03-01T05:21:38;-3.60;99.90
21047;DHT22;10682;50.874;3.656;2023-03-01T05:24:26;-3.60;99.90
21047;DHT22;10682;50.874;3.656;2023-03-01T05:26:54;-3.60;99.90
21047;DHT22;10682;50.874;3.656;2023-03-01T05:29:23;-3.60;99.90
21047;DHT22;10682;50.874;3.656;2023-03-01T05:31:55;-3.70;99.90
21047;DHT22;10682;50.874;3.656;2023-03-01T05:34:26;-3.70;99.90
21047;DHT22;10682;50.874;3.656;2023-03-01T05:39:58;-3.80;99.90
21047;DHT22;10682;50.874;3.656;2023-03-01T05:42:25;-3.80;99.90
21047;DHT22;10682;50.874;3.656;2023-03-01T05:44:52;-3.80;99.90
21047;DHT22;10682;50.874;3.656;2023-03-01T05:47:19;-3.80;99.90
21047;DHT22;10682;50.874;3.656;2023-03-01T05:49:47;-3.80;99.90
21047;DHT22;10682;50.874;3.656;2023-03-01T05:52:16;-3.80;99.90
21047;DHT22;10682;50.874;3.656;2023-03-01T05:54:43;-3.80;99.90
21047;DHT22;10682;50.874;3.656;2023-03-01T05:57:11;-3.80;99.90
21047;DHT22;10682;50.874;3.656;2023-03-01T05:59:38;-3.80;99.90
21047;DHT22;10682;50.874;3.656;2023-03-01T06:02:05;-3.80;99.90
21047;DHT22;10682;50.874;3.656;2023-03-01T06:04:32;-3.90;99.90
21047;DHT22;10682;50.874;3.656;2023-03-01T06:06:59;-3.90;99.90
21047;DHT22;10682;50.874;3.656;2023-03-01T06:09:26;-3.90;99.90
21047;DHT22;10682;50.874;3.656;2023-03-01T06:11:53;-4.00;99.90
21047;DHT22;10682;50.874;3.656;2023-03-01T06:14:20;-4.00;99.90
21047;DHT22;10682;50.874;3.656;2023-03-01T06:16:47;-3.90;99.90
21047;DHT22;10682;50.874;3.656;2023-03-01T06:19:15;-3.80;99.90
21047;DHT22;10682;50.874;3.656;2023-03-01T06:21:42;-3.80;99.90
21047;DHT22;10682;50.874;3.656;2023-03-01T06:24:09;-3.80;99.90
21047;DHT22;10682;50.874;3.656;2023-03-01T06:26:36;-3.80;99.90
21047;DHT22;10682;50.874;3.656;2023-03-01T06:29:03;-3.80;99.90
21047;DHT22;10682;50.874;3.656;2023-03-01T06:31:30;-3.70;99.90
21047;DHT22;10682;50.874;3.656;2023-03-01T06:33:58;-3.70;99.90
21047;DHT22;10682;50.874;3.656;2023-03-01T06:36:51;-3.70;99.90
21047;DHT22;10682;50.874;3.656;2023-03-01T06:39:35;-3.60;99.90
21047;DHT22;10682;50.874;3.656;2023-03-01T06:42:03;-3.70;99.90
21047;DHT22;10682;50.874;3.656;2023-03-01T06:44:30;-3.70;99.90
21047;DHT22;10682;50.874;3.656;2023-03-01T06:46:58;-3.70;99.90
21047;DHT22;10682;50.874;3.656;2023-03-01T06:49:26;-3.70;99.90
21047;DHT22;10682;50.874;3.656;2023-03-01T06:51:53;-3.70;99.90
21047;DHT22;10682;50.874;3.656;2023-03-01T06:54:20;-3.70;99.90
21047;DHT22;10682;50.874;3.656;2023-03-01T06:56:49;-3.70;99.90
21047;DHT22;10682;50.874;3.656;2023-03-01T06:59:17;-3.70;99.90
21047;DHT22;10682;50.874;3.656;2023-03-01T07:01:45;-3.70;99.90
21047;DHT22;10682;50.874;3.656;2023-03-01T07:04:13;-3.70;99.90
21047;DHT22;10682;50.874;3.656;2023-03-01T07:06:40;-3.60;99.90
21047;DHT22;10682;50.874;3.656;2023-03-01T07:09:07;-3.60;99.90
21047;DHT22;10682;50.874;3.656;2023-03-01T07:11:34;-3.50;99.90
21047;DHT22;10682;50.874;3.656;2023-03-01T07:14:01;-3.40;99.90
21047;DHT22;10682;50.874;3.656;2023-03-01T07:16:28;-3.40;99.90
21047;DHT22;10682;50.874;3.656;2023-03-01T07:18:56;-3.30;99.90
21047;DHT22;10682;50.874;3.656;2023-03-01T07:21:25;-3.30;99.90
21047;DHT22;10682;50.874;3.656;2023-03-01T07:23:52;-3.20;99.90
21047;DHT22;10682;50.874;3.656;2023-03-01T07:26:19;-3.00;99.90
21047;DHT22;10682;50.874;3.656;2023-03-01T07:28:46;-3.00;99.90
21047;DHT22;10682;50.874;3.656;2023-03-01T07:31:13;-2.90;99.90
21047;DHT22;10682;50.874;3.656;2023-03-01T07:33:55;-2.80;99.90
21047;DHT22;10682;50.874;3.656;2023-03-01T07:36:23;-2.70;99.90
21047;DHT22;10682;50.874;3.656;2023-03-01T07:38:51;-2.60;99.90
21047;DHT22;10682;50.874;3.656;2023-03-01T07:41:18;-2.40;99.90
21047;DHT22;10682;50.874;3.656;2023-03-01T07:43:45;-2.30;99.90
21047;DHT22;10682;50.874;3.656;2023-03-01T07:46:12;-2.20;99.90
21047;DHT22;10682;50.874;3.656;2023-03-01T07:48:40;-2.00;99.90
21047;DHT22;10682;50.874;3.656;2023-03-01T07:51:07;-1.90;99.90
21047;DHT22;10682;50.874;3.656;2023-03-01T07:53:35;-1.70;99.90
21047;DHT22;10682;50.874;3.656;2023-03-01T07:56:07;-1.50;99.90
21047;DHT22;10682;50.874;3.656;2023-03-01T07:58:41;-1.20;99.90
21047;DHT22;10682;50.874;3.656;2023-03-01T08:01:15;-0.90;99.90
21047;DHT22;10682;50.874;3.656;2023-03-01T08:03:44;-0.60;99.90
21047;DHT22;10682;50.874;3.656;2023-03-01T08:06:13;-0.40;99.90
21047;DHT22;10682;50.874;3.656;2023-03-01T08:08:41;-0.10;99.90
21047;DHT22;10682;50.874;3.656;2023-03-01T08:11:11;0.10;99.90
21047;DHT22;10682;50.874;3.656;2023-03-01T08:13:39;0.60;99.90
21047;DHT22;10682;50.874;3.656;2023-03-01T08:16:21;1.30;99.90
21047;DHT22;10682;50.874;3.656;2023-03-01T08:18:48;2.30;99.90
21047;DHT22;10682;50.874;3.656;2023-03-01T08:21:17;3.20;99.90
21047;DHT22;10682;50.874;3.656;2023-03-01T08:23:44;4.20;99.90
21047;DHT22;10682;50.874;3.656;2023-03-01T08:26:19;5.20;99.90
21047;DHT22;10682;50.874;3.656;2023-03-01T08:28:48;6.20;99.90
21047;DHT22;10682;50.874;3.656;2023-03-01T08:31:36;7.10;99.90
21047;DHT22;10682;50.874;3.656;2023-03-01T08:34:08;7.70;99.90
21047;DHT22;10682;50.874;3.656;2023-03-01T08:36:42;8.10;99.90
21047;DHT22;10682;50.874;3.656;2023-03-01T08:39:13;8.40;99.90
21047;DHT22;10682;50.874;3.656;2023-03-01T08:41:42;8.60;99.90
21047;DHT22;10682;50.874;3.656;2023-03-01T08:44:13;8.60;99.90
21047;DHT22;10682;50.874;3.656;2023-03-01T08:46:44;8.60;99.90
21047;DHT22;10682;50.874;3.656;2023-03-01T08:49:14;8.50;99.90
21047;DHT22;10682;50.874;3.656;2023-03-01T08:51:46;8.80;99.90
21047;DHT22;10682;50.874;3.656;2023-03-01T08:54:19;9.10;99.90
21047;DHT22;10682;50.874;3.656;2023-03-01T08:56:48;9.10;99.90
21047;DHT22;10682;50.874;3.656;2023-03-01T08:59:16;9.10;99.90
21047;DHT22;10682;50.874;3.656;2023-03-01T09:01:43;9.00;99.90
21047;DHT22;10682;50.874;3.656;2023-03-01T09:04:12;9.10;99.90
21047;DHT22;10682;50.874;3.656;2023-03-01T09:06:39;9.10;99.90
21047;DHT22;10682;50.874;3.656;2023-03-01T09:09:10;9.20;99.90
21047;DHT22;10682;50.874;3.656;2023-03-01T09:11:42;9.00;99.90
21047;DHT22;10682;50.874;3.656;2023-03-01T09:14:12;9.20;99.90
21047;DHT22;10682;50.874;3.656;2023-03-01T09:16:39;9.20;99.90
21047;DHT22;10682;50.874;3.656;2023-03-01T09:19:06;9.20;99.90
21047;DHT22;10682;50.874;3.656;2023-03-01T09:21:33;9.20;99.90
21047;DHT22;10682;50.874;3.656;2023-03-01T09:24:12;9.20;99.90
21047;DHT22;10682;50.874;3.656;2023-03-01T09:26:41;8.90;99.90
21047;DHT22;10682;50.874;3.656;2023-03-01T09:29:08;9.20;99.90
21047;DHT22;10682;50.874;3.656;2023-03-01T09:31:36;9.50;99.90
21047;DHT22;10682;50.874;3.656;2023-03-01T09:34:03;9.60;99.90
21047;DHT22;10682;50.874;3.656;2023-03-01T09:36:31;9.60;99.90
21047;DHT22;10682;50.874;3.656;2023-03-01T09:39:00;9.70;99.90
21047;DHT22;10682;50.874;3.656;2023-03-01T09:46:49;8.60;99.90
21047;DHT22;10682;50.874;3.656;2023-03-01T09:49:21;8.50;99.90
21047;DHT22;10682;50.874;3.656;2023-03-01T09:52:23;8.10;99.90
21047;DHT22;10682;50.874;3.656;2023-03-01T09:54:56;7.90;99.90
21047;DHT22;10682;50.874;3.656;2023-03-01T09:57:36;8.10;99.90
21047;DHT22;10682;50.874;3.656;2023-03-01T10:05:47;8.00;99.90
21047;DHT22;10682;50.874;3.656;2023-03-01T10:08:51;7.70;99.90
21047;DHT22;10682;50.874;3.656;2023-03-01T10:11:31;7.40;99.90
21047;DHT22;10682;50.874;3.656;2023-03-01T10:19:44;7.40;99.90
21047;DHT22;10682;50.874;3.656;2023-03-01T10:22:27;7.50;99.90
21047;DHT22;10682;50.874;3.656;2023-03-01T10:24:57;7.50;99.90
21047;DHT22;10682;50.874;3.656;2023-03-01T10:27:48;7.40;99.90
21047;DHT22;10682;50.874;3.656;2023-03-01T10:30:32;7.60;99.90
21047;DHT22;10682;50.874;3.656;2023-03-01T10:33:03;7.60;99.90
21047;DHT22;10682;50.874;3.656;2023-03-01T10:35:37;7.50;99.90
21047;DHT22;10682;50.874;3.656;2023-03-01T10:38:08;7.30;99.90
21047;DHT22;10682;50.874;3.656;2023-03-01T10:43:47;7.20;99.90
21047;DHT22;10682;50.874;3.656;2023-03-01T10:49:06;7.30;99.90
21047;DHT22;10682;50.874;3.656;2023-03-01T10:51:50;7.40;99.90
21047;DHT22;10682;50.874;3.656;2023-03-01T10:54:32;7.50;99.90
21047;DHT22;10682;50.874;3.656;2023-03-01T10:57:01;7.70;99.90
21047;DHT22;10682;50.874;3.656;2023-03-01T10:59:35;7.70;99.90
21047;DHT22;10682;50.874;3.656;2023-03-01T11:02:12;7.90;99.90
21047;DHT22;10682;50.874;3.656;2023-03-01T11:08:07;8.10;99.90
21047;DHT22;10682;50.874;3.656;2023-03-01T11:10:36;8.40;99.90
21047;DHT22;10682;50.874;3.656;2023-03-01T11:13:14;8.60;99.90
21047;DHT22;10682;50.874;3.656;2023-03-01T11:15:44;8.70;99.90
21047;DHT22;10682;50.874;3.656;2023-03-01T11:18:26;8.50;99.90
21047;DHT22;10682;50.874;3.656;2023-03-01T11:21:12;8.70;99.90
21047;DHT22;10682;50.874;3.656;2023-03-01T11:23:39;8.80;99.90
21047;DHT22;10682;50.874;3.656;2023-03-01T11:26:09;8.90;99.90
21047;DHT22;10682;50.874;3.656;2023-03-01T11:28:40;9.00;99.90
21047;DHT22;10682;50.874;3.656;2023-03-01T11:31:10;9.20;99.90
21047;DHT22;10682;50.874;3.656;2023-03-01T11:34:10;9.40;99.90
21047;DHT22;10682;50.874;3.656;2023-03-01T11:36:47;9.20;99.90
21047;DHT22;10682;50.874;3.656;2023-03-01T11:39:34;9.30;99.90
21047;DHT22;10682;50.874;3.656;2023-03-01T11:42:37;9.40;99.90
21047;DHT22;10682;50.874;3.656;2023-03-01T11:45:12;9.30;99.90
21047;DHT22;10682;50.874;3.656;2023-03-01T11:50:45;9.40;99.90
21047;DHT22;10682;50.874;3.656;2023-03-01T11:56:50;9.50;99.90
21047;DHT22;10682;50.874;3.656;2023-03-01T12:02:40;9.20;99.90
21047;DHT22;10682;50.874;3.656;2023-03-01T12:11:45;9.80;99.90
21047;DHT22;10682;50.874;3.656;2023-03-01T12:17:58;9.80;99.90
21047;DHT22;10682;50.874;3.656;2023-03-01T12:36:45;9.80;99.90
21047;DHT22;10682;50.874;3.656;2023-03-01T12:39:34;10.00;99.90
21047;DHT22;10682;50.874;3.656;2023-03-01T12:45:30;9.90;99.90
21047;DHT22;10682;50.874;3.656;2023-03-01T12:49:04;9.80;99.90
21047;DHT22;10682;50.874;3.656;2023-03-01T12:51:30;9.90;99.90
21047;DHT22;10682;50.874;3.656;2023-03-01T12:54:35;10.20;99.90
21047;DHT22;10682;50.874;3.656;2023-03-01T12:57:07;10.20;99.90
21047;DHT22;10682;50.874;3.656;2023-03-01T12:59:39;10.00;99.90
21047;DHT22;10682;50.874;3.656;2023-03-01T13:05:19;10.10;99.90
21047;DHT22;10682;50.874;3.656;2023-03-01T13:11:02;10.20;99.90
21047;DHT22;10682;50.874;3.656;2023-03-01T13:13:30;10.10;99.90
21047;DHT22;10682;50.874;3.656;2023-03-01T13:18:49;10.10;99.90
21047;DHT22;10682;50.874;3.656;2023-03-01T13:21:30;10.30;99.90
21047;DHT22;10682;50.874;3.656;2023-03-01T13:23:57;10.20;99.90
21047;DHT22;10682;50.874;3.656;2023-03-01T13:26:25;9.80;99.90
21047;DHT22;10682;50.874;3.656;2023-03-01T13:28:57;9.80;99.90
21047;DHT22;10682;50.874;3.656;2023-03-01T13:34:02;9.90;99.90
21047;DHT22;10682;50.874;3.656;2023-03-01T13:39:31;10.20;99.90
21047;DHT22;10682;50.874;3.656;2023-03-01T13:42:34;10.50;99.90
21047;DHT22;10682;50.874;3.656;2023-03-01T13:45:17;10.70;99.90
21047;DHT22;10682;50.874;3.656;2023-03-01T13:47:51;10.70;99.90
21047;DHT22;10682;50.874;3.656;2023-03-01T13:50:23;10.70;99.90
21047;DHT22;10682;50.874;3.656;2023-03-01T13:53:02;10.60;99.90
21047;DHT22;10682;50.874;3.656;2023-03-01T13:55:37;10.50;99.90
21047;DHT22;10682;50.874;3.656;2023-03-01T14:01:04;10.40;99.90
21047;DHT22;10682;50.874;3.656;2023-03-01T14:03:40;10.00;99.90
21047;DHT22;10682;50.874;3.656;2023-03-01T14:06:12;9.70;99.90
21047;DHT22;10682;50.874;3.656;2023-03-01T14:08:49;9.60;99.90
21047;DHT22;10682;50.874;3.656;2023-03-01T14:14:36;9.30;99.90
21047;DHT22;10682;50.874;3.656;2023-03-01T14:22:46;9.40;99.90
21047;DHT22;10682;50.874;3.656;2023-03-01T14:28:00;9.20;99.90
21047;DHT22;10682;50.874;3.656;2023-03-01T14:30:37;9.10;99.90
21047;DHT22;10682;50.874;3.656;2023-03-01T14:33:28;9.00;99.90
21047;DHT22;10682;50.874;3.656;2023-03-01T14:36:02;9.00;99.90
21047;DHT22;10682;50.874;3.656;2023-03-01T14:38:56;8.90;99.90
21047;DHT22;10682;50.874;3.656;2023-03-01T14:41:34;8.80;99.90
21047;DHT22;10682;50.874;3.656;2023-03-01T14:44:06;8.70;99.90
21047;DHT22;10682;50.874;3.656;2023-03-01T14:46:37;8.70;99.90
21047;DHT22;10682;50.874;3.656;2023-03-01T14:51:46;8.80;99.90
21047;DHT22;10682;50.874;3.656;2023-03-01T14:54:42;8.70;99.90
21047;DHT22;10682;50.874;3.656;2023-03-01T14:57:23;8.70;99.90
21047;DHT22;10682;50.874;3.656;2023-03-01T14:59:53;8.50;99.90
21047;DHT22;10682;50.874;3.656;2023-03-01T15:02:26;8.40;99.90
21047;DHT22;10682;50.874;3.656;2023-03-01T15:04:59;8.40;99.90
21047;DHT22;10682;50.874;3.656;2023-03-01T15:07:31;8.30;99.90
21047;DHT22;10682;50.874;3.656;2023-03-01T15:10:04;8.30;99.90
21047;DHT22;10682;50.874;3.656;2023-03-01T15:12:40;8.30;99.90
21047;DHT22;10682;50.874;3.656;2023-03-01T15:18:05;8.30;99.90
21047;DHT22;10682;50.874;3.656;2023-03-01T15:20:49;8.20;99.90
21047;DHT22;10682;50.874;3.656;2023-03-01T15:23:26;8.20;99.90
21047;DHT22;10682;50.874;3.656;2023-03-01T15:25:55;8.10;99.90
21047;DHT22;10682;50.874;3.656;2023-03-01T15:28:32;8.00;99.90
21047;DHT22;10682;50.874;3.656;2023-03-01T15:31:05;8.10;99.90
21047;DHT22;10682;50.874;3.656;2023-03-01T15:33:42;8.00;99.90
21047;DHT22;10682;50.874;3.656;2023-03-01T15:36:40;7.90;99.90
21047;DHT22;10682;50.874;3.656;2023-03-01T15:47:52;7.90;99.90
21047;DHT22;10682;50.874;3.656;2023-03-01T15:50:24;7.90;99.90
21047;DHT22;10682;50.874;3.656;2023-03-01T15:52:53;7.90;99.90
21047;DHT22;10682;50.874;3.656;2023-03-01T15:55:27;7.80;99.90
21047;DHT22;10682;50.874;3.656;2023-03-01T15:58:05;7.90;99.90
21047;DHT22;10682;50.874;3.656;2023-03-01T16:00:36;7.80;99.90
21047;DHT22;10682;50.874;3.656;2023-03-01T16:03:11;7.70;99.90
21047;DHT22;10682;50.874;3.656;2023-03-01T16:05:38;7.70;99.90
21047;DHT22;10682;50.874;3.656;2023-03-01T16:08:06;7.60;99.90
21047;DHT22;10682;50.874;3.656;2023-03-01T16:10:34;7.60;99.90
21047;DHT22;10682;50.874;3.656;2023-03-01T16:13:01;7.60;99.90
21047;DHT22;10682;50.874;3.656;2023-03-01T16:15:58;7.50;99.90
21047;DHT22;10682;50.874;3.656;2023-03-01T16:18:25;7.50;99.90
21047;DHT22;10682;50.874;3.656;2023-03-01T16:20:52;7.50;99.90
21047;DHT22;10682;50.874;3.656;2023-03-01T16:23:23;7.40;99.90
21047;DHT22;10682;50.874;3.656;2023-03-01T16:25:54;7.40;99.90
21047;DHT22;10682;50.874;3.656;2023-03-01T16:28:25;7.30;99.90
21047;DHT22;10682;50.874;3.656;2023-03-01T16:30:54;7.30;99.90
21047;DHT22;10682;50.874;3.656;2023-03-01T16:33:22;7.30;99.90
21047;DHT22;10682;50.874;3.656;2023-03-01T16:35:58;7.30;99.90
21047;DHT22;10682;50.874;3.656;2023-03-01T16:38:26;7.20;99.90
21047;DHT22;10682;50.874;3.656;2023-03-01T16:40:55;7.10;99.90
21047;DHT22;10682;50.874;3.656;2023-03-01T16:43:22;7.00;99.90
21047;DHT22;10682;50.874;3.656;2023-03-01T16:45:50;7.00;99.90
21047;DHT22;10682;50.874;3.656;2023-03-01T16:48:17;6.90;99.90
21047;DHT22;10682;50.874;3.656;2023-03-01T16:50:44;6.80;99.90
21047;DHT22;10682;50.874;3.656;2023-03-01T16:53:11;6.80;99.90
21047;DHT22;10682;50.874;3.656;2023-03-01T16:55:38;6.70;99.90
21047;DHT22;10682;50.874;3.656;2023-03-01T16:58:11;6.70;99.90
21047;DHT22;10682;50.874;3.656;2023-03-01T17:00:38;6.60;99.90
21047;DHT22;10682;50.874;3.656;2023-03-01T17:03:06;6.60;99.90
21047;DHT22;10682;50.874;3.656;2023-03-01T17:05:33;6.50;99.90
21047;DHT22;10682;50.874;3.656;2023-03-01T17:08:00;6.40;99.90
21047;DHT22;10682;50.874;3.656;2023-03-01T17:10:27;6.30;99.90
21047;DHT22;10682;50.874;3.656;2023-03-01T17:12:54;6.20;99.90
21047;DHT22;10682;50.874;3.656;2023-03-01T17:15:21;6.10;99.90
21047;DHT22;10682;50.874;3.656;2023-03-01T17:17:48;6.00;99.90
21047;DHT22;10682;50.874;3.656;2023-03-01T17:20:17;5.90;99.90
21047;DHT22;10682;50.874;3.656;2023-03-01T17:22:45;5.80;99.90
21047;DHT22;10682;50.874;3.656;2023-03-01T17:25:12;5.70;99.90
21047;DHT22;10682;50.874;3.656;2023-03-01T17:27:39;5.60;99.90
21047;DHT22;10682;50.874;3.656;2023-03-01T17:30:08;5.50;99.90
21047;DHT22;10682;50.874;3.656;2023-03-01T17:32:37;5.30;99.90
21047;DHT22;10682;50.874;3.656;2023-03-01T17:35:05;5.20;99.90
21047;DHT22;10682;50.874;3.656;2023-03-01T17:37:33;5.20;99.90
21047;DHT22;10682;50.874;3.656;2023-03-01T17:40:02;5.10;99.90
21047;DHT22;10682;50.874;3.656;2023-03-01T17:42:31;5.00;99.90
21047;DHT22;10682;50.874;3.656;2023-03-01T17:44:58;4.90;99.90
21047;DHT22;10682;50.874;3.656;2023-03-01T17:47:26;4.80;99.90
21047;DHT22;10682;50.874;3.656;2023-03-01T17:49:53;4.70;99.90
21047;DHT22;10682;50.874;3.656;2023-03-01T17:52:20;4.60;99.90
21047;DHT22;10682;50.874;3.656;2023-03-01T17:54:49;4.50;99.90
21047;DHT22;10682;50.874;3.656;2023-03-01T17:57:16;4.40;99.90
21047;DHT22;10682;50.874;3.656;2023-03-01T17:59:43;4.30;99.90
21047;DHT22;10682;50.874;3.656;2023-03-01T18:02:12;4.20;99.90
21047;DHT22;10682;50.874;3.656;2023-03-01T18:04:39;4.20;99.90
21047;DHT22;10682;50.874;3.656;2023-03-01T18:07:06;4.10;99.90
21047;DHT22;10682;50.874;3.656;2023-03-01T18:09:33;4.00;99.90
21047;DHT22;10682;50.874;3.656;2023-03-01T18:12:00;4.10;99.90